Time;durP1;ratioP1;P1;durP2;ratioP2;P2;SDS_P1;SDS_P2;PMS_P1;PMS_P2;Temp;Humidity;BMP_temperature;BMP_pressure;BME280_temperature;BME280_humidity;BME280_pressure;Samples;Min_cycle;Max_cycle;Signal;HPM_P1;HPM_P2
2022/07/12 00:02:02;;;;;;;0.95;0.38;;;;;;;19.38;50.46;97393.78;10097510;29;20048;-81
2022/07/12 00:07:22;;;;;;;0.85;0.55;;;;;;;19.37;50.54;97387.59;10101045;29;20047;-80
2022/07/12 00:12:42;;;;;;;1.20;0.63;;;;;;;19.38;50.57;97391.06;10103230;29;20051;-81
2022/07/12 00:18:01;;;;;;;1.15;0.47;;;;;;;19.37;50.70;97395.69;10090097;29;20049;-81
2022/07/12 00:23:20;;;;;;;0.63;0.60;;;;;;;19.35;50.61;97377.06;10103659;29;20100;-80
2022/07/12 00:28:39;;;;;;;0.50;0.50;;;;;;;19.36;50.60;97377.88;10104540;29;20484;-80
2022/07/12 00:34:00;;;;;;;0.30;0.30;;;;;;;19.35;50.54;97385.19;10051865;29;20624;-80
2022/07/12 00:39:19;;;;;;;0.90;0.50;;;;;;;19.35;50.75;97384.41;10077687;29;20049;-80
2022/07/12 00:44:39;;;;;;;0.40;0.38;;;;;;;19.36;50.71;97383.28;10071906;29;20069;-80
2022/07/12 00:49:59;;;;;;;0.43;0.43;;;;;;;19.35;50.72;97368.19;10077226;29;20056;-80
2022/07/12 00:55:20;;;;;;;0.60;0.40;;;;;;;19.37;50.72;97387.59;10086803;29;20060;-80
2022/07/12 01:00:39;;;;;;;0.70;0.50;;;;;;;19.34;50.63;97375.47;10089735;29;20409;-80
2022/07/12 01:05:59;;;;;;;0.63;0.45;;;;;;;19.35;50.76;97387.09;10101793;29;20049;-80
2022/07/12 01:11:19;;;;;;;1.10;0.52;;;;;;;19.35;51.11;97387.88;10101611;29;20044;-80
2022/07/12 01:16:38;;;;;;;1.15;0.60;;;;;;;19.35;50.77;97379.78;10089036;29;20416;-80
2022/07/12 01:22:00;;;;;;;0.75;0.60;;;;;;;19.34;50.91;97383.56;10089814;29;20045;-80
2022/07/12 01:27:19;;;;;;;0.50;0.50;;;;;;;19.35;50.87;97387.88;10089173;29;20052;-80
2022/07/12 01:32:39;;;;;;;0.63;0.50;;;;;;;19.33;50.56;97383.91;10102149;29;20041;-80
2022/07/12 01:37:58;;;;;;;0.95;0.50;;;;;;;19.34;50.85;97385.47;10076077;29;20053;-80
2022/07/12 01:43:18;;;;;;;0.57;0.40;;;;;;;19.33;51.01;97382.00;10105616;29;20505;-80
2022/07/12 01:48:38;;;;;;;0.40;0.40;;;;;;;19.33;51.10;97383.91;10108809;29;20105;-80
2022/07/12 01:53:57;;;;;;;0.50;0.50;;;;;;;19.33;50.93;97389.31;10082489;29;20104;-80
2022/07/12 01:59:17;;;;;;;0.47;0.47;;;;;;;19.34;51.16;97388.97;10102616;29;20736;-80
2022/07/12 02:04:37;;;;;;;0.60;0.60;;;;;;;19.33;50.97;97394.72;10135011;29;20056;-80
2022/07/12 02:09:57;;;;;;;0.55;0.55;;;;;;;19.33;51.04;97398.19;10138947;29;20495;-80
2022/07/12 02:15:17;;;;;;;0.50;0.50;;;;;;;19.33;51.10;97394.72;10107677;29;20048;-80
2022/07/12 02:20:36;;;;;;;0.63;0.63;;;;;;;19.32;51.04;97399.28;10082001;29;20493;-80
2022/07/12 02:25:56;;;;;;;2.08;0.50;;;;;;;19.32;51.17;97410.09;10091929;29;20041;-80
2022/07/12 02:31:15;;;;;;;0.50;0.50;;;;;;;19.32;51.08;97414.72;10107211;29;20049;-80
2022/07/12 02:36:35;;;;;;;0.68;0.50;;;;;;;19.31;51.08;97413.13;10093994;29;20041;-80
2022/07/12 02:41:54;;;;;;;0.50;0.50;;;;;;;19.33;51.01;97429.84;10067813;29;20041;-80
2022/07/12 02:47:13;;;;;;;0.50;0.50;;;;;;;19.30;51.13;97420.41;10093397;29;20061;-80
2022/07/12 02:52:33;;;;;;;0.50;0.50;;;;;;;19.30;51.18;97428.53;10106046;29;20045;-80
2022/07/12 02:57:53;;;;;;;0.73;0.60;;;;;;;19.30;51.02;97425.81;10109398;29;20048;-80
2022/07/12 03:03:13;;;;;;;0.40;0.40;;;;;;;19.30;51.15;97425.81;10118400;29;20492;-80
2022/07/12 03:08:32;;;;;;;0.50;0.50;;;;;;;19.30;51.24;97423.13;10144373;29;20520;-80
2022/07/12 03:13:52;;;;;;;0.77;0.70;;;;;;;19.30;51.08;97428.53;10080004;29;20056;-80
2022/07/12 03:19:11;;;;;;;0.50;0.50;;;;;;;19.30;51.25;97431.22;10092210;29;20056;-80
2022/07/12 03:24:31;;;;;;;0.50;0.50;;;;;;;19.30;51.24;97435.84;10106451;29;20048;-80
2022/07/12 03:29:50;;;;;;;0.55;0.50;;;;;;;19.30;51.13;97438.53;10091828;29;20045;-80
2022/07/12 03:35:10;;;;;;;0.50;0.50;;;;;;;19.31;51.20;97442.84;10091490;29;20056;-80
2022/07/12 03:40:31;;;;;;;0.57;0.55;;;;;;;19.30;51.23;97442.03;10104545;29;20510;-80
2022/07/12 03:45:51;;;;;;;0.50;0.50;;;;;;;19.29;51.24;97445.06;10091083;29;20060;-80
2022/07/12 03:51:11;;;;;;;0.40;0.40;;;;;;;19.29;51.33;97447.75;10086956;29;20564;-80
2022/07/12 04:02:08;;;;;;;0.50;0.50;;;;;;;19.30;51.27;97446.63;10074179;29;20053;-80
2022/07/12 04:07:28;;;;;;;0.55;0.55;;;;;;;19.30;51.30;97450.13;10084057;29;20317;-80
2022/07/12 04:12:47;;;;;;;1.30;0.60;;;;;;;19.31;51.11;97451.75;10086157;29;20041;-80
2022/07/12 04:18:07;;;;;;;0.68;0.60;;;;;;;19.33;51.34;97448.75;10068970;29;20049;-79
2022/07/12 04:23:26;;;;;;;0.50;0.50;;;;;;;19.35;51.74;97446.53;10094533;29;20053;-79
2022/07/12 04:28:46;;;;;;;0.50;0.50;;;;;;;19.36;51.70;97453.50;10072539;29;20042;-79
2022/07/12 04:34:05;;;;;;;1.75;0.55;;;;;;;19.40;51.71;97453.72;10083875;29;20049;-79
2022/07/12 04:39:25;;;;;;;0.55;0.55;;;;;;;19.41;51.64;97466.91;10100326;29;20057;-79
2022/07/12 04:44:44;;;;;;;0.60;0.60;;;;;;;19.43;51.88;97470.09;10068391;29;20414;-79
2022/07/12 04:50:08;;;;;;;0.60;0.60;;;;;;;19.44;51.74;97471.69;10121927;29;20040;-79
2022/07/12 04:55:28;;;;;;;2.08;0.70;;;;;;;19.42;50.24;97473.91;10092044;29;20439;-80
2022/07/12 05:00:47;;;;;;;1.50;1.10;;;;;;;19.23;48.20;97465.16;10097927;29;20045;-80
2022/07/12 05:06:07;;;;;;;3.33;1.15;;;;;;;19.08;48.15;97475.22;10110035;29;20037;-79
2022/07/12 05:11:26;;;;;;;2.03;1.23;;;;;;;19.11;49.51;97471.09;10105840;29;20049;-80
2022/07/12 05:16:45;;;;;;;2.08;1.40;;;;;;;19.18;49.84;97474.19;10104168;29;20055;-80
2022/07/12 05:22:05;;;;;;;2.38;1.20;;;;;;;19.22;50.25;97474.38;10092481;29;20051;-80
2022/07/12 05:27:25;;;;;;;3.03;1.30;;;;;;;19.25;50.41;97468.34;10067583;29;20403;-80
2022/07/12 05:32:44;;;;;;;2.38;1.13;;;;;;;19.26;50.70;97464.56;10074536;29;20060;-80
2022/07/12 05:38:03;;;;;;;3.15;1.20;;;;;;;19.27;50.74;97474.28;10096657;29;20057;-80
2022/07/12 05:43:22;;;;;;;3.08;1.23;;;;;;;19.28;50.88;97479.34;10106952;29;20057;-80
2022/07/12 05:48:42;;;;;;;3.28;1.25;;;;;;;19.28;51.01;97481.28;10109138;29;20056;-80
2022/07/12 05:54:01;;;;;;;2.60;1.27;;;;;;;19.28;51.12;97481.28;10095918;29;20053;-80
2022/07/12 05:59:20;;;;;;;2.42;1.27;;;;;;;19.29;51.32;97490.97;10108915;29;20053;-80
2022/07/12 06:04:40;;;;;;;3.67;1.30;;;;;;;19.29;51.11;97488.28;10095592;29;20055;-80
2022/07/12 06:09:59;;;;;;;2.67;1.40;;;;;;;19.29;51.15;97490.97;10108281;29;20049;-80
2022/07/12 06:15:19;;;;;;;2.35;1.20;;;;;;;19.29;51.14;97499.09;10095298;29;20041;-80
2022/07/12 06:20:39;;;;;;;2.53;1.30;;;;;;;19.30;51.31;97490.66;10069148;29;20045;-80
2022/07/12 06:25:58;;;;;;;3.42;1.52;;;;;;;19.30;51.36;97492.56;10105397;29;20493;-80
2022/07/12 06:31:18;;;;;;;2.85;1.38;;;;;;;19.29;51.45;97502.59;10094534;29;20041;-80
2022/07/12 06:36:37;;;;;;;4.20;1.73;;;;;;;19.30;51.38;97514.97;10069950;29;20045;-80
2022/07/12 06:41:56;;;;;;;9.60;2.72;;;;;;;19.30;51.49;97511.47;10055696;29;20056;-80
2022/07/12 06:47:16;;;;;;;9.18;2.80;;;;;;;19.30;51.39;97514.19;10124084;29;20488;-80
2022/07/12 06:52:35;;;;;;;13.15;4.10;;;;;;;19.32;51.54;97522.78;10132811;29;20510;-80
2022/07/12 06:57:55;;;;;;;17.00;4.88;;;;;;;19.30;51.65;97514.19;10119441;29;20488;-80
2022/07/12 07:03:15;;;;;;;11.02;3.75;;;;;;;19.31;51.62;97516.59;10132534;29;20053;-80
2022/07/12 07:08:34;;;;;;;8.25;2.97;;;;;;;19.32;51.82;97511.97;10146114;29;20040;-80
2022/07/12 07:13:55;;;;;;;9.65;3.55;;;;;;;19.33;51.77;97510.88;10078006;29;20101;-80
2022/07/12 07:19:14;;;;;;;10.27;3.53;;;;;;;19.31;51.94;97511.19;10102933;29;20401;-80
2022/07/12 07:24:33;;;;;;;9.90;3.15;;;;;;;19.32;51.90;97515.47;10105472;29;20045;-80
2022/07/12 07:35:31;;;;;;;5.97;2.70;;;;;;;19.32;52.01;97520.88;10099404;29;20052;-80
2022/07/12 07:40:50;;;;;;;7.95;2.70;;;;;;;19.31;51.94;97516.59;10088930;29;20659;-80
2022/07/12 07:46:09;;;;;;;6.22;2.35;;;;;;;19.32;51.96;97534.38;10096964;29;20080;-80
2022/07/12 07:51:29;;;;;;;6.90;2.50;;;;;;;19.32;51.99;97523.56;10088792;29;20041;-80
2022/07/12 07:56:49;;;;;;;7.10;2.55;;;;;;;19.33;52.16;97532.50;10076514;29;20053;-80
2022/07/12 08:02:11;;;;;;;8.02;3.20;;;;;;;19.33;52.23;97521.69;10090924;29;20041;-81
2022/07/12 08:07:30;;;;;;;6.30;2.75;;;;;;;19.33;52.45;97524.38;10105454;29;20124;-80
2022/07/12 08:12:50;;;;;;;4.60;2.35;;;;;;;19.34;52.42;97525.97;10073624;29;20051;-80
2022/07/12 08:18:10;;;;;;;6.00;2.90;;;;;;;19.33;52.43;97525.19;10075056;29;20468;-80
2022/07/12 08:23:29;;;;;;;5.95;2.30;;;;;;;19.34;52.40;97517.88;10090356;29;20052;-81
2022/07/12 08:28:49;;;;;;;4.70;2.00;;;;;;;19.34;52.47;97521.34;10081705;29;20067;-80
2022/07/12 08:34:09;;;;;;;4.60;2.30;;;;;;;19.34;52.58;97515.94;10106162;29;20099;-80
2022/07/12 08:39:28;;;;;;;4.30;1.90;;;;;;;19.35;52.61;97514.06;10076765;29;20048;-80
2022/07/12 08:44:56;;;;;;;5.10;2.20;;;;;;;19.36;52.62;97518.34;10085696;29;20205;-80
2022/07/12 08:50:21;;;;;;;4.25;1.98;;;;;;;19.35;52.81;97500.56;10080378;29;20045;-80
2022/07/12 08:55:40;;;;;;;4.22;1.85;;;;;;;19.34;52.57;97504.34;10109090;29;20520;-80
2022/07/12 09:01:00;;;;;;;4.53;1.90;;;;;;;19.36;52.82;97507.56;10082979;29;20049;-80
2022/07/12 09:06:22;;;;;;;3.42;1.75;;;;;;;19.36;52.87;97508.34;10088891;29;20049;-80
2022/07/12 09:11:46;;;;;;;3.95;1.90;;;;;;;19.38;53.05;97509.94;10080514;29;20050;-80
2022/07/12 09:17:12;;;;;;;2.95;1.60;;;;;;;19.36;52.95;97512.94;10071093;29;20054;-80
2022/07/12 09:22:32;;;;;;;2.95;1.85;;;;;;;19.36;53.00;97518.34;10087430;29;20041;-81
2022/07/12 09:27:57;;;;;;;4.75;1.88;;;;;;;19.36;53.03;97523.75;10122479;29;20052;-80
2022/07/12 09:39:02;;;;;;;4.65;1.92;;;;;;;19.36;53.22;97526.47;10124376;29;20053;-80
2022/07/12 09:44:23;;;;;;;4.03;1.73;;;;;;;19.36;53.26;97519.16;10129973;29;20060;-80
2022/07/12 09:49:43;;;;;;;3.88;1.75;;;;;;;19.36;53.26;97511.03;10060788;29;20044;-80
2022/07/12 09:55:03;;;;;;;5.68;1.63;;;;;;;19.37;53.36;97503.75;10103158;29;20053;-80
2022/07/12 10:00:23;;;;;;;4.38;1.80;;;;;;;19.38;53.39;97512.66;10106636;29;20041;-79
2022/07/12 10:05:43;;;;;;;4.18;1.80;;;;;;;19.38;53.44;97518.84;10089041;29;20049;-79
2022/07/12 10:11:02;;;;;;;4.85;2.00;;;;;;;19.38;53.30;97526.16;10082842;29;20056;-80
2022/07/12 10:16:26;;;;;;;3.03;1.70;;;;;;;19.38;53.36;97524.25;10091216;29;20056;-80
2022/07/12 10:21:50;;;;;;;3.42;1.60;;;;;;;19.39;53.42;97520.47;10086666;29;20045;-80
2022/07/12 10:27:13;;;;;;;3.78;1.98;;;;;;;19.38;53.33;97521.56;10085389;29;20037;-80
2022/07/12 10:32:35;;;;;;;3.55;1.75;;;;;;;19.38;53.29;97513.44;10078619;29;20045;-80
2022/07/12 10:38:17;;;;;;;4.00;1.80;;;;;;;19.39;53.41;97512.34;10093175;29;20057;-80
2022/07/12 10:49:28;;;;;;;3.20;1.60;;;;;;;19.40;53.62;97510.44;10131729;29;20408;-80
2022/07/12 10:54:57;;;;;;;2.42;1.50;;;;;;;19.40;53.48;97503.13;10119539;29;20040;-80
2022/07/12 11:00:17;;;;;;;2.65;1.40;;;;;;;19.39;53.61;97504.25;10104638;29;20053;-79
2022/07/12 11:05:36;;;;;;;4.22;1.60;;;;;;;19.39;53.41;97501.56;10098479;29;20048;-80
2022/07/12 11:10:58;;;;;;;2.88;1.55;;;;;;;19.40;53.61;97505.84;10101176;29;20484;-80
2022/07/12 11:16:18;;;;;;;2.60;1.42;;;;;;;19.40;53.60;97503.13;10093566;29;20048;-80
2022/07/12 11:21:38;;;;;;;2.90;1.42;;;;;;;19.40;53.60;97502.34;10095022;29;20100;-80
2022/07/12 11:26:59;;;;;;;2.45;1.50;;;;;;;19.40;53.90;97508.53;10086324;29;20428;-80
2022/07/12 11:32:33;;;;;;;2.63;1.65;;;;;;;19.39;53.56;97496.16;10085735;29;20045;-80
2022/07/12 11:37:55;;;;;;;2.13;1.40;;;;;;;19.40;53.63;97502.34;10101231;29;20053;-80
2022/07/12 11:43:14;;;;;;;2.95;1.42;;;;;;;19.40;53.75;97486.91;10075731;29;20108;-81
2022/07/12 11:48:35;;;;;;;3.63;1.67;;;;;;;19.42;53.88;97498.22;10090216;29;20041;-81
2022/07/12 11:53:55;;;;;;;2.78;1.30;;;;;;;19.43;53.96;97499.84;10089311;29;20041;-80
2022/07/12 11:59:22;;;;;;;2.67;1.33;;;;;;;19.45;54.23;97486.81;10096869;29;20049;-80
2022/07/12 12:04:48;;;;;;;3.42;1.27;;;;;;;19.48;54.06;97497.03;10082059;29;20056;-80
2022/07/12 12:10:17;;;;;;;6.82;2.45;;;;;;;19.49;54.37;97482.38;10106948;29;20049;-80
2022/07/12 12:15:36;;;;;;;4.65;2.00;;;;;;;19.51;54.78;97496.38;10085906;29;20049;-80
2022/07/12 12:21:04;;;;;;;5.50;1.80;;;;;;;19.53;55.05;97496.09;10103401;29;20440;-81
2022/07/12 12:26:26;;;;;;;4.20;1.80;;;;;;;19.55;54.88;97491.19;10081789;29;20045;-81
2022/07/12 12:31:56;;;;;;;5.78;2.00;;;;;;;19.54;54.68;97493.09;10075584;29;20051;-80
2022/07/12 12:37:17;;;;;;;4.47;1.98;;;;;;;19.53;54.26;97488.78;10087001;29;20032;-81
2022/07/12 12:42:36;;;;;;;3.50;1.63;;;;;;;19.53;54.08;97491.47;10077500;29;20045;-80
2022/07/12 12:48:00;;;;;;;4.60;1.50;;;;;;;19.53;54.10;97504.19;10085037;29;20516;-80
2022/07/12 12:53:24;;;;;;;1.85;1.33;;;;;;;19.52;54.04;97505.28;10100353;29;20047;-80
2022/07/12 12:58:43;;;;;;;3.47;1.33;;;;;;;19.50;54.04;97497.50;10088161;29;20121;-80
2022/07/12 13:04:03;;;;;;;3.13;1.27;;;;;;;19.50;53.80;97492.09;10097630;29;20048;-81
2022/07/12 13:09:22;;;;;;;5.65;1.45;;;;;;;19.50;53.69;97504.78;10076252;29;20092;-80
2022/07/12 13:14:42;;;;;;;3.25;1.35;;;;;;;19.51;53.56;97492.91;10084162;29;20445;-80
2022/07/12 13:20:02;;;;;;;3.35;1.77;;;;;;;19.50;53.58;97489.41;10101635;29;20056;-80
2022/07/12 13:25:22;;;;;;;2.42;1.25;;;;;;;19.52;53.26;97491.78;10094158;29;20061;-80
2022/07/12 13:30:41;;;;;;;3.58;1.50;;;;;;;19.51;53.26;97496.38;10070829;29;20045;-80
2022/07/12 13:36:01;;;;;;;3.85;1.52;;;;;;;19.52;52.98;97492.59;10100816;29;20092;-79
2022/07/12 13:41:20;;;;;;;3.10;1.45;;;;;;;19.54;52.34;97494.97;10094862;29;20049;-79
2022/07/12 13:46:40;;;;;;;4.55;1.63;;;;;;;19.55;51.84;97478.44;10097375;29;20139;-80
2022/07/12 13:52:01;;;;;;;6.07;1.60;;;;;;;19.58;51.76;97484.34;10092592;29;20063;-80
2022/07/12 13:57:20;;;;;;;2.60;1.35;;;;;;;19.58;51.70;97476.25;10092552;29;20049;-80
2022/07/12 14:02:41;;;;;;;2.78;1.30;;;;;;;19.59;51.27;97477.84;10093387;29;20037;-80
2022/07/12 14:08:01;;;;;;;3.67;1.60;;;;;;;19.61;50.97;97483.75;10091405;29;20492;-80
2022/07/12 14:13:20;;;;;;;4.75;1.70;;;;;;;19.60;50.99;97482.94;10102745;29;20437;-80
2022/07/12 14:18:40;;;;;;;2.47;1.50;;;;;;;19.62;50.86;97478.03;10106899;29;20049;-80
2022/07/12 14:24:00;;;;;;;2.90;1.35;;;;;;;19.63;50.81;97474.22;10091752;29;20060;-80
2022/07/12 14:29:20;;;;;;;4.78;1.60;;;;;;;19.63;50.71;97470.72;10105435;29;20044;-80
2022/07/12 14:34:39;;;;;;;2.78;1.33;;;;;;;19.65;50.49;97463.88;10101298;29;20047;-80
2022/07/12 14:39:59;;;;;;;2.00;1.17;;;;;;;19.66;50.78;97467.38;10092213;29;20061;-80
2022/07/12 14:45:19;;;;;;;3.03;1.42;;;;;;;19.67;50.57;97475.19;10071078;29;20063;-80
2022/07/12 14:50:38;;;;;;;2.70;1.40;;;;;;;19.68;50.46;97460.59;10094075;29;20052;-80
2022/07/12 14:55:58;;;;;;;3.35;1.30;;;;;;;19.70;50.58;97462.97;10093115;29;20052;-80
2022/07/12 15:01:18;;;;;;;2.05;1.20;;;;;;;19.72;50.26;97466.22;10108046;29;20569;-81
2022/07/12 15:06:38;;;;;;;3.17;1.08;;;;;;;19.73;50.40;97463.16;10061491;29;20053;-80
2022/07/12 15:11:57;;;;;;;3.13;1.13;;;;;;;19.77;50.23;97465.28;10083715;29;20457;-81
2022/07/12 15:17:18;;;;;;;2.72;1.10;;;;;;;19.78;50.38;97453.34;10103808;29;20440;-80
2022/07/12 15:22:38;;;;;;;3.00;1.10;;;;;;;19.80;50.52;97460.03;10099360;29;20045;-80
2022/07/12 15:27:58;;;;;;;1.15;1.00;;;;;;;19.75;49.39;97454.75;10087467;29;20047;-80
2022/07/12 15:33:18;;;;;;;2.15;1.00;;;;;;;19.72;49.66;97458.09;10077410;29;20033;-80
2022/07/12 15:38:37;;;;;;;2.33;1.00;;;;;;;19.69;49.30;97459.47;10091636;29;20531;-80
2022/07/12 15:43:58;;;;;;;1.13;0.80;;;;;;;19.71;50.04;97457.28;10085088;29;20053;-80
2022/07/12 15:49:18;;;;;;;1.27;0.85;;;;;;;19.69;49.43;97462.16;10089678;29;20044;-81
2022/07/12 15:54:37;;;;;;;1.10;0.88;;;;;;;19.71;49.92;97456.47;10090017;29;20408;-81
2022/07/12 15:59:57;;;;;;;1.48;0.75;;;;;;;19.71;49.34;97449.16;10087270;29;20053;-81
2022/07/12 16:05:17;;;;;;;1.98;0.70;;;;;;;19.72;49.53;97455.41;10089428;29;20045;-80
2022/07/12 16:10:36;;;;;;;0.88;0.70;;;;;;;19.69;49.54;97450.56;10091821;29;20049;-81
2022/07/12 16:15:56;;;;;;;0.85;0.60;;;;;;;19.70;49.14;97462.97;10088885;29;20119;-81
2022/07/12 16:21:18;;;;;;;0.70;0.70;;;;;;;19.69;49.56;97451.34;10083364;29;20124;-81
2022/07/12 16:26:39;;;;;;;0.60;0.60;;;;;;;19.68;49.01;97444.38;10077183;29;20057;-80
2022/07/12 16:32:02;;;;;;;1.10;0.80;;;;;;;19.71;49.40;97442.94;10078310;29;20037;-81
2022/07/12 16:37:21;;;;;;;2.15;0.85;;;;;;;19.72;49.17;97448.06;10098606;29;20121;-80
2022/07/12 16:42:41;;;;;;;2.45;0.70;;;;;;;19.74;48.91;97453.19;10084683;29;20293;-81
2022/07/12 16:48:01;;;;;;;2.00;0.90;;;;;;;19.74;49.41;97453.19;10081861;29;20045;-80
2022/07/12 16:53:21;;;;;;;2.45;0.80;;;;;;;19.72;50.07;97455.41;10097868;29;20049;-80
2022/07/12 16:58:42;;;;;;;2.72;0.95;;;;;;;19.72;50.62;97458.09;10085030;29;20173;-80
2022/07/12 17:04:02;;;;;;;1.92;0.70;;;;;;;19.72;50.81;97458.09;10088907;29;20505;-80
2022/07/12 17:09:23;;;;;;;3.45;0.70;;;;;;;19.71;51.23;97465.38;10082451;29;20041;-79
2022/07/12 17:14:43;;;;;;;1.50;0.80;;;;;;;19.73;51.30;97460.47;10079453;29;20071;-80
2022/07/12 17:20:03;;;;;;;1.85;0.63;;;;;;;19.74;51.43;97455.88;10084831;29;20045;-79
2022/07/12 17:25:22;;;;;;;0.93;0.50;;;;;;;19.72;51.49;97453.47;10098415;29;20101;-80
2022/07/12 17:30:43;;;;;;;1.25;0.50;;;;;;;19.72;51.43;97458.88;10089813;29;20109;-80
2022/07/12 17:36:03;;;;;;;1.60;0.70;;;;;;;19.72;51.42;97455.41;10131172;29;20040;-80
2022/07/12 17:41:22;;;;;;;1.17;0.77;;;;;;;19.71;51.54;97461.88;10118557;29;20492;-80
2022/07/12 17:46:42;;;;;;;1.90;0.70;;;;;;;19.72;51.05;97461.59;10084946;29;20052;-81
2022/07/12 17:52:01;;;;;;;2.30;0.63;;;;;;;19.72;50.81;97466.22;10099990;29;20041;-81
2022/07/12 17:57:20;;;;;;;4.18;0.73;;;;;;;19.71;50.01;97464.56;10079547;29;20045;-81
2022/07/12 18:02:39;;;;;;;3.70;0.70;;;;;;;19.71;49.49;97475.38;10082896;29;20086;-81
2022/07/12 18:07:59;;;;;;;2.53;0.60;;;;;;;19.69;48.42;97470.28;10107284;29;20477;-80
2022/07/12 18:18:56;;;;;;;1.33;0.70;;;;;;;19.64;48.64;97470.41;10106604;29;20056;-80
2022/07/12 18:24:16;;;;;;;4.07;2.20;;;;;;;19.60;48.50;97471.31;10085099;29;20041;-80
2022/07/12 18:29:35;;;;;;;9.43;6.20;;;;;;;19.58;49.23;97473.53;10102923;29;20048;-81
2022/07/12 18:34:55;;;;;;;8.30;6.05;;;;;;;19.60;49.24;97471.31;10078517;29;20093;-80
2022/07/12 18:40:14;;;;;;;8.85;6.25;;;;;;;19.60;49.59;97479.44;10076060;29;20101;-81
2022/07/12 18:45:34;;;;;;;7.50;5.97;;;;;;;19.62;50.01;97474.50;10079928;29;20061;-81
2022/07/12 18:50:55;;;;;;;8.70;5.30;;;;;;;19.62;49.90;97477.22;10093241;29;20041;-81
2022/07/12 18:56:15;;;;;;;6.80;4.85;;;;;;;19.63;49.96;97478.84;10109712;29;20493;-80
2022/07/12 19:01:35;;;;;;;8.82;3.92;;;;;;;19.63;50.27;97486.94;10113517;29;20057;-80
2022/07/12 19:06:55;;;;;;;5.50;3.45;;;;;;;19.63;50.15;97487.72;10099543;29;20424;-81
2022/07/12 19:12:14;;;;;;;5.90;3.25;;;;;;;19.64;50.24;97481.22;10074354;29;20053;-80
2022/07/12 19:17:34;;;;;;;7.95;3.22;;;;;;;19.65;50.50;97490.13;10102282;29;20057;-80
2022/07/12 19:22:54;;;;;;;4.20;2.88;;;;;;;19.65;50.64;97493.63;10100027;29;20525;-81
2022/07/12 19:28:13;;;;;;;8.70;3.55;;;;;;;19.66;51.02;97497.94;10099018;29;20422;-80
2022/07/12 19:33:32;;;;;;;4.47;3.20;;;;;;;19.66;51.28;97499.81;10102141;29;20072;-80
2022/07/12 19:38:51;;;;;;;5.50;3.28;;;;;;;19.65;51.64;97499.03;10091446;29;20049;-80
2022/07/12 19:44:11;;;;;;;5.72;3.00;;;;;;;19.66;51.76;97506.03;10084996;29;20078;-79
2022/07/12 19:49:30;;;;;;;10.05;3.35;;;;;;;19.66;51.83;97505.22;10094471;29;20045;-80
2022/07/12 19:54:50;;;;;;;7.07;3.10;;;;;;;19.65;52.01;97507.13;10088389;29;20045;-80
2022/07/12 20:00:11;;;;;;;4.78;2.92;;;;;;;19.65;51.91;97514.47;10085415;29;20041;-80
2022/07/12 20:05:34;;;;;;;4.70;2.30;;;;;;;19.64;51.79;97507.44;10098489;29;20458;-80
2022/07/12 20:10:53;;;;;;;3.30;1.83;;;;;;;19.64;51.80;97512.84;10095391;29;20041;-80
2022/07/12 20:16:13;;;;;;;3.65;1.70;;;;;;;19.63;51.63;97511.25;10091926;29;20044;-81
2022/07/12 20:21:33;;;;;;;1.88;1.52;;;;;;;19.63;51.51;97516.66;10102497;29;20057;-80
2022/07/12 20:26:52;;;;;;;4.20;1.60;;;;;;;19.63;51.51;97511.25;10102122;29;20081;-80
2022/07/12 20:32:12;;;;;;;2.25;1.40;;;;;;;19.64;51.66;97510.97;10079481;29;20081;-81
2022/07/12 20:37:31;;;;;;;3.47;1.58;;;;;;;19.64;51.60;97512.84;10104763;29;20056;-81
2022/07/12 20:42:51;;;;;;;1.58;1.40;;;;;;;19.63;51.80;97508.56;10084292;29;20088;-81
2022/07/12 20:48:11;;;;;;;2.67;1.58;;;;;;;19.63;51.94;97508.56;10080341;29;20599;-81
2022/07/12 20:53:30;;;;;;;2.22;1.30;;;;;;;19.63;51.97;97505.84;10087616;29;20477;-81
2022/07/12 20:58:49;;;;;;;2.60;1.40;;;;;;;19.63;52.17;97512.06;10109072;29;20049;-81
2022/07/12 21:04:10;;;;;;;2.40;1.40;;;;;;;19.62;52.13;97509.66;10094582;29;20045;-81
2022/07/12 21:09:31;;;;;;;3.45;1.30;;;;;;;19.63;52.17;97513.97;10095310;29;20044;-81
2022/07/12 21:14:50;;;;;;;2.22;1.30;;;;;;;19.63;52.07;97513.97;10107597;29;20045;-81
2022/07/12 21:20:11;;;;;;;1.63;1.10;;;;;;;19.63;52.18;97522.06;10107184;29;20057;-81
2022/07/12 21:25:31;;;;;;;1.77;1.30;;;;;;;19.62;52.22;97509.66;10079991;29;20048;-81
2022/07/12 21:30:51;;;;;;;1.42;1.20;;;;;;;19.63;52.36;97505.84;10112237;29;20070;-83
2022/07/12 21:36:11;;;;;;;2.72;1.40;;;;;;;19.63;52.19;97509.34;10088956;29;20527;-81
2022/07/12 21:41:31;;;;;;;2.17;1.25;;;;;;;19.62;52.44;97506.94;10060705;29;20049;-81
2022/07/12 21:46:51;;;;;;;2.10;1.20;;;;;;;19.61;52.41;97508.88;10097912;29;20049;-81
2022/07/12 21:52:10;;;;;;;1.13;1.00;;;;;;;19.61;52.41;97508.06;10103269;29;20512;-80
2022/07/12 21:57:30;;;;;;;1.23;1.13;;;;;;;19.61;52.32;97508.06;10078746;29;20060;-80
2022/07/12 22:02:49;;;;;;;1.42;1.17;;;;;;;19.62;52.42;97509.66;10092979;29;20497;-80
2022/07/12 22:08:09;;;;;;;1.60;1.10;;;;;;;19.60;52.45;97501.88;10114008;29;20048;-80
2022/07/12 22:13:29;;;;;;;1.30;1.20;;;;;;;19.61;52.39;97503.47;10076870;29;20041;-81
2022/07/12 22:18:48;;;;;;;1.55;1.20;;;;;;;19.62;52.47;97509.66;10092817;29;20057;-81
2022/07/12 22:24:07;;;;;;;1.13;1.02;;;;;;;19.61;52.29;97508.06;10079045;29;20071;-81
2022/07/12 22:29:26;;;;;;;1.17;1.08;;;;;;;19.61;52.47;97508.06;10113400;29;20048;-80
2022/07/12 22:34:46;;;;;;;1.63;1.00;;;;;;;19.62;52.44;97506.94;10105213;29;20490;-80
2022/07/12 22:40:06;;;;;;;1.20;1.10;;;;;;;19.62;52.53;97504.25;10088427;29;20045;-80
2022/07/12 22:45:25;;;;;;;1.38;1.10;;;;;;;19.61;52.61;97502.66;10103930;29;20068;-81
2022/07/12 22:56:24;;;;;;;1.08;0.90;;;;;;;19.61;52.53;97497.25;10106170;29;20049;-80
2022/07/12 23:01:43;;;;;;;1.15;0.90;;;;;;;19.60;52.58;97495.66;10101341;29;20059;-80
2022/07/12 23:07:03;;;;;;;1.08;0.95;;;;;;;19.60;52.44;97501.06;10084037;29;20049;-80
2022/07/12 23:12:22;;;;;;;1.00;0.82;;;;;;;19.61;52.60;97506.16;10076289;29;20063;-80
2022/07/12 23:17:42;;;;;;;1.60;1.00;;;;;;;19.60;52.58;97498.34;10087895;29;20055;-81
2022/07/12 23:23:01;;;;;;;1.25;1.10;;;;;;;19.60;52.51;97506.47;10103391;29;20048;-81
2022/07/12 23:28:20;;;;;;;1.38;1.02;;;;;;;19.60;52.52;97509.16;10074994;29;20052;-81
2022/07/12 23:33:40;;;;;;;0.93;0.88;;;;;;;19.59;52.56;97505.66;10075610;29;20041;-80
2022/07/12 23:38:59;;;;;;;1.05;0.95;;;;;;;19.59;52.56;97508.38;10089721;29;20049;-80
2022/07/12 23:44:19;;;;;;;0.80;0.80;;;;;;;19.59;52.64;97504.88;10091613;29;20057;-80
2022/07/12 23:49:38;;;;;;;1.10;0.98;;;;;;;19.59;52.56;97500.25;10087037;29;20056;-80
2022/07/12 23:54:57;;;;;;;0.80;0.70;;;;;;;19.60;52.70;97501.06;10089921;29;20041;-80
